Time;durP1;ratioP1;P1;durP2;ratioP2;P2;SDS_P1;SDS_P2;PMS_P1;PMS_P2;Temp;Humidity;BMP_temperature;BMP_pressure;BME280_temperature;BME280_humidity;BME280_pressure;Samples;Min_cycle;Max_cycle;Signal;HPM_P1;HPM_P2
2022/12/20 00:01:54;;;;;;;8.68;4.55;;;9.10;99.90;;;;;;5011825;28;20050;-82
2022/12/20 00:04:19;;;;;;;11.18;5.18;;;9.10;99.90;;;;;;5018757;28;20392;-82
2022/12/20 00:06:45;;;;;;;10.43;4.57;;;9.00;99.90;;;;;;5014986;28;20041;-82
2022/12/20 00:09:11;;;;;;;10.02;4.63;;;9.00;99.90;;;;;;5019614;28;20041;-82
2022/12/20 00:11:39;;;;;;;9.45;4.80;;;8.90;99.90;;;;;;5012300;28;20042;-82
2022/12/20 00:14:06;;;;;;;8.43;4.35;;;8.90;99.90;;;;;;5019784;28;20046;-82
2022/12/20 00:16:31;;;;;;;9.63;4.70;;;8.90;99.90;;;;;;5012851;28;20053;-81
2022/12/20 00:19:00;;;;;;;7.25;4.60;;;8.90;99.90;;;;;;5015028;28;20072;-82
2022/12/20 00:21:26;;;;;;;8.45;5.00;;;8.90;99.90;;;;;;5032678;28;20056;-82
2022/12/20 00:23:52;;;;;;;7.95;4.68;;;9.00;99.90;;;;;;5021949;28;20056;-81
2022/12/20 00:26:21;;;;;;;8.32;4.40;;;9.00;99.90;;;;;;5014587;28;20050;-81
2022/12/20 00:28:48;;;;;;;8.98;4.65;;;9.00;99.90;;;;;;5012432;28;20056;-82
2022/12/20 00:31:16;;;;;;;8.15;4.53;;;9.00;99.90;;;;;;5023241;28;20045;-82
2022/12/20 00:33:45;;;;;;;12.18;4.15;;;9.00;99.90;;;;;;5022535;28;20496;-82
2022/12/20 00:36:11;;;;;;;9.65;4.28;;;9.00;99.90;;;;;;5016768;28;20097;-81
2022/12/20 00:38:37;;;;;;;9.85;4.68;;;9.00;99.90;;;;;;5018766;28;20167;-82
2022/12/20 00:41:07;;;;;;;9.48;4.20;;;9.10;99.90;;;;;;5002340;28;20460;-82
2022/12/20 00:43:34;;;;;;;9.00;4.88;;;9.00;99.90;;;;;;5026167;28;20134;-82
2022/12/20 00:46:00;;;;;;;8.43;4.82;;;9.00;99.90;;;;;;4994441;28;20698;-82
2022/12/20 00:48:27;;;;;;;10.38;4.57;;;9.20;99.90;;;;;;5014213;28;20137;-82
2022/12/20 00:51:01;;;;;;;9.50;4.18;;;9.00;99.90;;;;;;5026160;28;20041;-82
2022/12/20 00:53:27;;;;;;;8.05;5.00;;;9.00;99.90;;;;;;5019354;28;20026;-82
2022/12/20 00:55:53;;;;;;;7.60;4.13;;;9.00;99.90;;;;;;5025104;28;20034;-82
2022/12/20 00:58:19;;;;;;;7.35;4.57;;;9.10;99.90;;;;;;5016486;28;20071;-81
2022/12/20 01:00:45;;;;;;;9.38;4.20;;;9.00;99.90;;;;;;5010361;28;20124;-81
2022/12/20 01:03:10;;;;;;;7.55;4.38;;;9.00;99.90;;;;;;5028651;28;20473;-81
2022/12/20 01:05:36;;;;;;;9.15;4.20;;;9.10;99.90;;;;;;5019532;28;20070;-82
2022/12/20 01:08:03;;;;;;;6.30;3.97;;;9.00;99.90;;;;;;5015369;28;20120;-82
2022/12/20 01:10:29;;;;;;;7.32;4.03;;;9.10;99.90;;;;;;5025233;28;20243;-82
2022/12/20 01:12:55;;;;;;;8.10;4.07;;;9.10;99.90;;;;;;5024115;28;20037;-82
2022/12/20 01:15:21;;;;;;;7.60;3.67;;;9.10;99.90;;;;;;5024985;28;20034;-82
2022/12/20 01:17:47;;;;;;;9.23;4.63;;;9.10;99.90;;;;;;5024757;28;20155;-82
2022/12/20 01:20:13;;;;;;;6.22;3.85;;;9.10;99.90;;;;;;5020903;28;20049;-82
2022/12/20 01:22:38;;;;;;;9.13;4.00;;;9.20;99.90;;;;;;5020028;28;20034;-82
2022/12/20 01:25:05;;;;;;;8.35;3.67;;;9.20;99.90;;;;;;5023838;28;20504;-82
2022/12/20 01:27:31;;;;;;;9.75;4.05;;;9.20;99.90;;;;;;5027699;28;20895;-81
2022/12/20 01:29:56;;;;;;;6.57;3.42;;;9.20;99.90;;;;;;5014850;28;20086;-81
2022/12/20 01:32:22;;;;;;;6.78;3.80;;;9.20;99.90;;;;;;5014953;28;20545;-82
2022/12/20 01:34:47;;;;;;;8.07;4.10;;;9.40;99.90;;;;;;5016042;28;20056;-82
2022/12/20 01:37:13;;;;;;;6.05;3.75;;;9.20;99.90;;;;;;5017330;28;20030;-82
2022/12/20 01:39:39;;;;;;;6.15;3.60;;;9.10;99.90;;;;;;5021927;28;20408;-82
2022/12/20 01:42:05;;;;;;;8.43;4.63;;;9.20;99.90;;;;;;5019248;28;20143;-81
2022/12/20 01:44:30;;;;;;;9.18;3.85;;;9.10;99.90;;;;;;5014644;28;20378;-81
2022/12/20 01:46:56;;;;;;;7.22;3.70;;;9.20;99.90;;;;;;5021111;28;20040;-82
2022/12/20 01:49:27;;;;;;;8.93;3.78;;;9.20;99.90;;;;;;5015367;28;20458;-82
2022/12/20 01:52:10;;;;;;;9.07;4.35;;;9.20;99.90;;;;;;5021360;28;20084;-82
2022/12/20 01:54:41;;;;;;;6.32;3.50;;;9.20;99.90;;;;;;5023820;28;20041;-82
2022/12/20 01:57:39;;;;;;;9.27;3.90;;;9.20;99.90;;;;;;5022758;28;20057;-82
2022/12/20 02:00:05;;;;;;;6.18;3.47;;;9.20;99.90;;;;;;4997301;28;20183;-82
2022/12/20 02:02:32;;;;;;;7.38;3.42;;;9.20;99.90;;;;;;4998884;28;20384;-82
2022/12/20 02:04:58;;;;;;;8.65;3.47;;;9.20;99.90;;;;;;5017299;28;20042;-82
2022/12/20 02:07:27;;;;;;;9.05;4.00;;;9.20;99.90;;;;;;5012753;28;20180;-82
2022/12/20 02:09:55;;;;;;;6.43;3.42;;;9.20;99.90;;;;;;5021909;28;20231;-82
2022/12/20 02:12:27;;;;;;;6.57;3.28;;;9.20;99.90;;;;;;5014685;28;20049;-82
2022/12/20 02:14:59;;;;;;;5.40;3.28;;;9.20;99.90;;;;;;5016650;28;20477;-82
2022/12/20 02:17:53;;;;;;;7.97;3.83;;;9.20;99.90;;;;;;5014594;28;20612;-82
2022/12/20 02:20:51;;;;;;;7.55;3.60;;;9.20;99.90;;;;;;4993915;28;20079;-82
2022/12/20 02:23:39;;;;;;;6.57;3.60;;;9.20;99.90;;;;;;5018340;28;20052;-83
2022/12/20 02:26:36;;;;;;;8.77;3.42;;;9.20;99.90;;;;;;5022154;28;20044;-82
2022/12/20 02:29:21;;;;;;;7.10;3.38;;;9.20;99.90;;;;;;5015785;28;20449;-83
2022/12/20 02:31:55;;;;;;;11.77;3.40;;;9.20;99.90;;;;;;5006441;28;20452;-82
2022/12/20 02:34:23;;;;;;;;;;;9.30;99.90;;;;;;5012329;28;20045;-82
2022/12/20 02:36:50;;;;;;;6.50;3.47;;;9.30;99.90;;;;;;5025868;28;20331;-82
2022/12/20 02:39:16;;;;;;;7.95;3.40;;;9.30;99.90;;;;;;5033010;28;20215;-82
2022/12/20 02:41:48;;;;;;;8.25;3.72;;;9.30;99.90;;;;;;5020115;28;20515;-82
2022/12/20 02:47:06;;;;;;;11.20;3.80;;;9.40;99.90;;;;;;5014622;28;20053;-83
2022/12/20 02:49:37;;;;;;;7.68;3.55;;;9.40;99.90;;;;;;5020375;28;20033;-82
2022/12/20 02:52:05;;;;;;;8.32;3.17;;;9.30;99.90;;;;;;5025314;28;20045;-82
2022/12/20 02:54:32;;;;;;;7.60;3.50;;;9.30;99.90;;;;;;5019237;28;20057;-82
2022/12/20 02:57:26;;;;;;;7.55;4.00;;;9.40;99.90;;;;;;5014571;28;20390;-82
2022/12/20 03:00:04;;;;;;;7.43;3.60;;;9.40;99.90;;;;;;5032398;28;20056;-82
2022/12/20 03:03:21;;;;;;;12.00;3.95;;;9.40;99.90;;;;;;5018300;28;20338;-82
2022/12/20 03:05:22;;;;;;;5.85;3.58;;;9.40;99.90;;;;;;5018132;28;20060;-82
2022/12/20 03:07:48;;;;;;;7.93;4.20;;;9.40;99.90;;;;;;5013715;28;20081;-82
2022/12/20 03:10:13;;;;;;;10.95;4.25;;;9.40;99.90;;;;;;5012429;28;20293;-82
2022/12/20 03:12:39;;;;;;;10.45;3.78;;;9.30;99.90;;;;;;5013493;28;20046;-82
2022/12/20 03:15:05;;;;;;;9.02;4.18;;;9.20;99.90;;;;;;5019901;28;20095;-81
2022/12/20 03:17:31;;;;;;;8.98;4.15;;;9.20;99.90;;;;;;4997489;28;20037;-81
2022/12/20 03:19:57;;;;;;;6.93;4.03;;;9.20;99.90;;;;;;5001081;28;20386;-81
2022/12/20 03:22:22;;;;;;;6.47;3.85;;;9.20;99.90;;;;;;5012059;28;20065;-81
2022/12/20 03:24:48;;;;;;;8.00;3.88;;;9.20;99.90;;;;;;5014558;28;20041;-81
2022/12/20 03:27:15;;;;;;;8.20;4.55;;;9.20;99.90;;;;;;5016918;28;20077;-81
2022/12/20 03:29:41;;;;;;;7.80;4.10;;;9.20;99.90;;;;;;5014798;28;20049;-81
2022/12/20 03:32:06;;;;;;;12.10;4.75;;;9.10;99.90;;;;;;5012615;28;20053;-81
2022/12/20 03:34:32;;;;;;;9.40;4.38;;;9.10;99.90;;;;;;5016560;28;20443;-81
2022/12/20 03:36:58;;;;;;;8.73;4.50;;;9.10;99.90;;;;;;5012494;28;20516;-81
2022/12/20 03:39:23;;;;;;;7.78;4.32;;;9.10;99.90;;;;;;5017674;28;20773;-81
2022/12/20 03:41:49;;;;;;;6.55;3.88;;;9.00;99.90;;;;;;5011488;28;20072;-81
2022/12/20 03:44:14;;;;;;;9.63;4.50;;;9.00;99.90;;;;;;5011185;28;20026;-81
2022/12/20 03:46:40;;;;;;;9.10;4.80;;;9.00;99.90;;;;;;5015096;28;20041;-81
2022/12/20 03:49:06;;;;;;;10.55;5.72;;;9.00;99.90;;;;;;5018970;28;20567;-82
2022/12/20 03:51:34;;;;;;;7.38;4.25;;;9.00;99.90;;;;;;5016586;28;20042;-81
2022/12/20 03:53:59;;;;;;;8.82;4.65;;;9.00;99.90;;;;;;5035286;28;20135;-81
2022/12/20 03:56:25;;;;;;;10.88;5.40;;;9.00;99.90;;;;;;5021606;28;20041;-81
2022/12/20 03:58:50;;;;;;;8.23;4.57;;;9.00;99.90;;;;;;5009804;28;20048;-81
2022/12/20 04:01:25;;;;;;;7.15;4.18;;;8.90;99.90;;;;;;5021466;28;20037;-81
2022/12/20 04:03:50;;;;;;;8.90;4.47;;;8.90;99.90;;;;;;5013939;28;20034;-81
2022/12/20 04:06:17;;;;;;;7.05;4.30;;;8.90;99.90;;;;;;5009861;28;20790;-81
2022/12/20 04:08:43;;;;;;;6.97;3.80;;;8.90;99.90;;;;;;4993571;28;20050;-81
2022/12/20 04:11:15;;;;;;;10.88;5.10;;;8.80;99.90;;;;;;5014053;28;20387;-81
2022/12/20 04:13:43;;;;;;;8.02;4.55;;;8.80;99.90;;;;;;5010875;28;20379;-80
2022/12/20 04:16:10;;;;;;;9.63;5.20;;;8.80;99.90;;;;;;5009881;28;20068;-81
2022/12/20 04:18:36;;;;;;;8.80;4.88;;;8.80;99.90;;;;;;5013531;28;20504;-81
2022/12/20 04:21:03;;;;;;;8.50;4.35;;;8.90;99.90;;;;;;5012451;28;20088;-81
2022/12/20 04:23:29;;;;;;;9.50;4.75;;;8.90;99.90;;;;;;5027318;28;20503;-81
2022/12/20 04:25:54;;;;;;;8.48;4.72;;;8.90;99.90;;;;;;5015953;28;20033;-81
2022/12/20 04:28:20;;;;;;;11.40;4.65;;;8.90;99.90;;;;;;5008995;28;20038;-81
2022/12/20 04:30:45;;;;;;;9.32;4.63;;;8.90;99.90;;;;;;5012839;28;20054;-81
2022/12/20 04:33:11;;;;;;;8.15;4.63;;;9.00;99.90;;;;;;5008455;28;20041;-81
2022/12/20 04:35:37;;;;;;;9.07;4.82;;;9.00;99.90;;;;;;5012868;28;20045;-81
2022/12/20 04:38:03;;;;;;;7.63;4.78;;;9.00;99.90;;;;;;5013442;28;20091;-81
2022/12/20 04:40:28;;;;;;;7.63;4.35;;;9.00;99.90;;;;;;5017011;28;20046;-80
2022/12/20 04:42:54;;;;;;;11.43;4.90;;;9.10;99.90;;;;;;5023448;28;20049;-81
2022/12/20 04:45:20;;;;;;;9.07;4.72;;;9.10;99.90;;;;;;5010495;28;20426;-81
2022/12/20 04:47:45;;;;;;;9.70;5.10;;;9.20;99.90;;;;;;5016496;28;20041;-81
2022/12/20 04:50:11;;;;;;;8.25;4.43;;;9.10;99.90;;;;;;5015459;28;20399;-81
2022/12/20 04:55:21;;;;;;;9.82;4.78;;;9.10;99.90;;;;;;5015546;28;20063;-81
2022/12/20 04:57:47;;;;;;;9.30;4.97;;;9.20;99.90;;;;;;5011569;28;20045;-81
2022/12/20 05:00:14;;;;;;;8.30;4.78;;;9.20;99.90;;;;;;5018625;28;20030;-81
2022/12/20 05:02:40;;;;;;;10.68;5.45;;;9.20;99.90;;;;;;5019281;28;20034;-81
2022/12/20 05:05:06;;;;;;;11.88;5.18;;;9.30;99.90;;;;;;5021254;28;20073;-81
2022/12/20 05:07:32;;;;;;;8.63;4.90;;;9.30;99.90;;;;;;5012812;28;20077;-81
2022/12/20 05:09:58;;;;;;;10.07;4.93;;;9.30;99.90;;;;;;5021796;28;20042;-81
2022/12/20 05:12:23;;;;;;;9.93;4.93;;;9.30;99.90;;;;;;5019329;28;20125;-81
2022/12/20 05:14:49;;;;;;;11.30;5.20;;;9.30;99.90;;;;;;5014214;28;20691;-81
2022/12/20 05:17:15;;;;;;;9.60;5.22;;;9.40;99.90;;;;;;5013262;28;20160;-81
2022/12/20 05:19:40;;;;;;;11.85;4.57;;;9.40;99.90;;;;;;5023011;28;20408;-81
2022/12/20 05:27:34;;;;;;;7.32;4.30;;;9.50;99.90;;;;;;5015269;28;20465;-80
2022/12/20 05:30:00;;;;;;;8.60;4.47;;;9.50;99.90;;;;;;5020775;28;20069;-80
2022/12/20 05:32:26;;;;;;;7.30;3.92;;;9.50;99.90;;;;;;5014545;28;20041;-81
2022/12/20 05:34:51;;;;;;;7.32;4.47;;;9.50;99.90;;;;;;5017069;28;20483;-81
2022/12/20 05:37:17;;;;;;;6.85;3.95;;;9.50;99.90;;;;;;5012696;28;20496;-81
2022/12/20 05:39:42;;;;;;;7.95;3.92;;;9.60;99.90;;;;;;5023021;28;20081;-81
2022/12/20 05:42:08;;;;;;;7.10;4.07;;;9.60;99.90;;;;;;5027896;28;20041;-80
2022/12/20 05:44:34;;;;;;;6.70;3.90;;;9.60;99.90;;;;;;5016874;28;20048;-80
2022/12/20 05:46:59;;;;;;;9.38;4.43;;;9.60;99.90;;;;;;5012068;28;20550;-81
2022/12/20 05:49:25;;;;;;;7.65;3.80;;;9.70;99.90;;;;;;5020653;28;20079;-80
2022/12/20 05:51:51;;;;;;;8.27;3.75;;;9.70;99.90;;;;;;5019500;28;20131;-81
2022/12/20 05:54:16;;;;;;;6.25;3.80;;;9.80;99.90;;;;;;5017452;28;20403;-80
2022/12/20 05:56:42;;;;;;;7.40;3.53;;;9.70;99.90;;;;;;5023710;28;20736;-81
2022/12/20 05:59:08;;;;;;;8.23;3.85;;;9.70;99.90;;;;;;5022109;28;20030;-80
2022/12/20 06:01:34;;;;;;;7.53;4.20;;;9.70;99.90;;;;;;5020628;28;20048;-81
2022/12/20 06:03:59;;;;;;;7.78;3.72;;;9.70;99.90;;;;;;5014773;28;20114;-82
2022/12/20 06:06:25;;;;;;;10.23;3.20;;;9.70;99.90;;;;;;5019251;28;20080;-80
2022/12/20 06:08:51;;;;;;;8.18;3.58;;;9.70;99.90;;;;;;5016797;28;20045;-83
2022/12/20 06:11:16;;;;;;;6.80;4.20;;;9.70;99.90;;;;;;5012230;28;20042;-82
2022/12/20 06:13:42;;;;;;;7.03;3.70;;;9.80;99.90;;;;;;5021043;28;20114;-82
2022/12/20 06:16:08;;;;;;;8.00;3.40;;;9.80;99.90;;;;;;5028794;28;20634;-82
2022/12/20 06:18:34;;;;;;;6.93;3.35;;;9.80;99.90;;;;;;5018415;28;20045;-81
2022/12/20 06:21:00;;;;;;;6.70;4.43;;;9.80;99.90;;;;;;5031471;28;20061;-82
2022/12/20 06:23:26;;;;;;;5.75;3.67;;;9.80;99.90;;;;;;5014573;28;20041;-82
2022/12/20 06:25:52;;;;;;;9.27;5.07;;;9.80;99.90;;;;;;5016637;28;20171;-83
2022/12/20 06:28:20;;;;;;;10.55;4.70;;;9.80;99.90;;;;;;5017389;28;20029;-82
2022/12/20 06:30:57;;;;;;;8.43;3.47;;;9.80;99.90;;;;;;5011224;28;20067;-82
2022/12/20 06:33:24;;;;;;;7.95;4.22;;;9.80;99.90;;;;;;5009914;28;20206;-82
2022/12/20 06:35:50;;;;;;;7.15;4.35;;;9.90;99.90;;;;;;5021013;28;20116;-83
2022/12/20 06:38:15;;;;;;;7.32;4.38;;;9.90;99.90;;;;;;5013003;28;20081;-82
2022/12/20 06:40:41;;;;;;;8.80;4.18;;;9.90;99.90;;;;;;5021365;28;20073;-81
2022/12/20 06:43:07;;;;;;;6.22;3.25;;;9.90;99.90;;;;;;5036566;28;20103;-80
2022/12/20 06:45:33;;;;;;;6.88;3.75;;;10.00;99.90;;;;;;5016855;28;20465;-81
2022/12/20 06:47:59;;;;;;;7.38;4.05;;;10.00;99.90;;;;;;5031679;28;20113;-81
2022/12/20 06:50:25;;;;;;;14.57;4.35;;;10.00;99.90;;;;;;5017971;28;20057;-81
2022/12/20 06:52:53;;;;;;;9.40;5.40;;;10.00;99.90;;;;;;5013561;28;20099;-81
2022/12/20 06:55:22;;;;;;;6.50;4.18;;;10.00;99.90;;;;;;5013672;28;20044;-80
2022/12/20 06:57:48;;;;;;;7.75;4.55;;;10.00;99.90;;;;;;5012845;28;20041;-81
2022/12/20 07:00:17;;;;;;;6.88;4.45;;;10.00;99.90;;;;;;5015143;28;20044;-81
2022/12/20 07:02:44;;;;;;;11.43;5.85;;;10.00;99.90;;;;;;5012022;28;20109;-81
2022/12/20 07:05:10;;;;;;;8.80;4.80;;;9.90;99.90;;;;;;5025412;28;20038;-82
2022/12/20 07:07:36;;;;;;;7.30;4.88;;;9.90;99.90;;;;;;5019797;28;20040;-81
2022/12/20 07:10:02;;;;;;;10.25;6.13;;;9.80;99.90;;;;;;5017745;28;20538;-81
2022/12/20 07:12:28;;;;;;;11.50;6.10;;;9.80;99.90;;;;;;5016099;28;20125;-84
2022/12/20 07:14:54;;;;;;;10.02;6.57;;;9.80;99.90;;;;;;5023185;28;20490;-85
2022/12/20 07:17:20;;;;;;;11.15;7.25;;;9.80;99.90;;;;;;5017593;28;20045;-85
2022/12/20 07:19:46;;;;;;;11.70;6.15;;;9.70;99.90;;;;;;5011940;28;20042;-85
2022/12/20 07:22:12;;;;;;;9.35;6.20;;;9.70;99.90;;;;;;5014989;28;20083;-84
2022/12/20 07:24:38;;;;;;;9.88;6.10;;;9.70;99.90;;;;;;5008408;28;20065;-84
2022/12/20 07:27:04;;;;;;;11.32;7.35;;;9.70;99.90;;;;;;5012257;28;20385;-85
2022/12/20 07:29:30;;;;;;;10.07;6.40;;;9.70;99.90;;;;;;5012844;28;20476;-85
2022/12/20 07:31:55;;;;;;;9.43;6.03;;;9.70;99.90;;;;;;5002941;28;20045;-83
2022/12/20 07:34:21;;;;;;;12.63;7.07;;;9.70;99.90;;;;;;5009070;28;20034;-81
2022/12/20 07:36:47;;;;;;;10.48;6.25;;;9.70;99.90;;;;;;5010164;28;20116;-80
2022/12/20 07:39:13;;;;;;;10.75;6.90;;;9.70;99.90;;;;;;5016102;28;20041;-81
2022/12/20 07:41:39;;;;;;;14.60;7.13;;;9.70;99.90;;;;;;5022244;28;20187;-82
2022/12/20 07:44:05;;;;;;;11.77;7.55;;;9.70;99.90;;;;;;5014735;28;20033;-81
2022/12/20 07:46:31;;;;;;;13.18;7.65;;;9.70;99.90;;;;;;5017081;28;20607;-82
2022/12/20 07:48:57;;;;;;;12.35;7.05;;;9.70;99.90;;;;;;5014634;28;20069;-82
2022/12/20 07:51:30;;;;;;;11.52;7.43;;;9.70;99.90;;;;;;5016239;28;20045;-82
2022/12/20 07:54:02;;;;;;;11.05;7.65;;;9.80;99.90;;;;;;5012056;28;20095;-81
2022/12/20 07:56:28;;;;;;;15.20;7.43;;;9.80;99.90;;;;;;5008851;28;20120;-82
2022/12/20 07:58:59;;;;;;;13.25;7.32;;;9.80;99.90;;;;;;5008979;28;20104;-82
2022/12/20 08:01:29;;;;;;;11.25;7.55;;;9.80;99.90;;;;;;5018401;28;20041;-82
2022/12/20 08:04:00;;;;;;;13.10;7.28;;;9.80;99.90;;;;;;5017342;28;20052;-82
2022/12/20 08:06:26;;;;;;;9.20;6.10;;;9.80;99.90;;;;;;5016666;28;20041;-82
2022/12/20 08:08:57;;;;;;;11.27;7.07;;;9.90;99.90;;;;;;5010325;28;20100;-82
2022/12/20 08:11:24;;;;;;;11.60;6.88;;;9.90;99.90;;;;;;5007875;28;20046;-81
2022/12/20 08:13:51;;;;;;;11.18;6.63;;;9.90;99.90;;;;;;5023556;28;20081;-82
2022/12/20 08:16:16;;;;;;;11.35;7.15;;;9.80;99.90;;;;;;5028041;28;20050;-82
2022/12/20 08:18:42;;;;;;;12.55;6.30;;;9.90;99.90;;;;;;5007679;28;20053;-82
2022/12/20 08:21:09;;;;;;;10.32;6.13;;;9.90;99.90;;;;;;5009183;28;20608;-82
2022/12/20 08:23:35;;;;;;;12.18;6.15;;;9.90;99.90;;;;;;5012361;28;20046;-81
2022/12/20 08:26:01;;;;;;;9.57;6.03;;;9.80;99.90;;;;;;5009423;28;20061;-81
2022/12/20 08:28:26;;;;;;;11.57;6.22;;;9.90;99.90;;;;;;5016380;28;20059;-80
2022/12/20 08:30:53;;;;;;;12.13;6.00;;;9.90;99.90;;;;;;5015850;28;20052;-81
2022/12/20 08:33:18;;;;;;;12.02;5.80;;;9.90;99.90;;;;;;5014397;28;20087;-81
2022/12/20 08:35:44;;;;;;;7.68;5.40;;;9.90;99.90;;;;;;5015453;28;20128;-81
2022/12/20 08:38:10;;;;;;;9.60;5.70;;;9.90;99.90;;;;;;5022831;28;20479;-82
2022/12/20 08:40:36;;;;;;;10.00;5.32;;;9.90;99.90;;;;;;5018255;28;20057;-80
2022/12/20 08:43:01;;;;;;;8.65;5.43;;;9.90;99.90;;;;;;5012447;28;20037;-80
2022/12/20 08:45:28;;;;;;;9.10;4.82;;;9.90;99.90;;;;;;5030325;28;20042;-81
2022/12/20 08:47:54;;;;;;;8.88;4.18;;;9.90;99.90;;;;;;5017486;28;20530;-79
2022/12/20 08:50:19;;;;;;;8.65;3.83;;;9.90;99.90;;;;;;5019914;28;20104;-80
2022/12/20 08:52:45;;;;;;;9.00;4.70;;;9.90;99.90;;;;;;5017631;28;20083;-80
2022/12/20 08:55:11;;;;;;;9.82;4.88;;;10.00;99.90;;;;;;5022021;28;20037;-80
2022/12/20 08:57:37;;;;;;;8.65;4.40;;;10.00;99.90;;;;;;5015131;28;20385;-80
2022/12/20 09:00:03;;;;;;;9.38;5.00;;;10.00;99.90;;;;;;5013556;28;20737;-80
2022/12/20 09:02:29;;;;;;;8.20;4.82;;;10.10;99.90;;;;;;5034891;28;20037;-80
2022/12/20 09:04:55;;;;;;;7.25;4.15;;;10.00;99.90;;;;;;5016283;28;20048;-79
2022/12/20 09:07:21;;;;;;;10.57;5.35;;;10.10;99.90;;;;;;5016819;28;20052;-80
2022/12/20 09:09:47;;;;;;;9.43;5.53;;;10.10;99.90;;;;;;5014922;28;20034;-80
2022/12/20 09:12:12;;;;;;;8.10;3.60;;;10.10;99.90;;;;;;5012765;28;20041;-80
2022/12/20 09:14:38;;;;;;;7.10;3.85;;;10.10;99.90;;;;;;5009890;28;20042;-80
2022/12/20 09:17:05;;;;;;;9.20;5.75;;;10.10;99.90;;;;;;5021477;28;20522;-81
2022/12/20 09:19:31;;;;;;;6.35;3.30;;;10.10;99.90;;;;;;5020233;28;20033;-80
2022/12/20 09:21:57;;;;;;;6.60;3.13;;;10.20;99.90;;;;;;5016913;28;20041;-80
2022/12/20 09:24:23;;;;;;;8.00;3.75;;;10.20;99.90;;;;;;5030610;28;20025;-80
2022/12/20 09:26:48;;;;;;;9.15;5.07;;;10.20;99.90;;;;;;5035693;28;20103;-80
2022/12/20 09:29:14;;;;;;;7.70;3.67;;;10.20;99.90;;;;;;5000341;28;20044;-80
2022/12/20 09:31:40;;;;;;;6.50;2.83;;;10.20;99.90;;;;;;5022193;28;20034;-80
2022/12/20 09:34:06;;;;;;;6.38;3.28;;;10.20;99.90;;;;;;5016765;28;20084;-81
2022/12/20 09:36:31;;;;;;;9.15;2.72;;;10.30;99.90;;;;;;5030431;28;20416;-80
2022/12/20 09:38:57;;;;;;;7.22;2.80;;;10.30;99.90;;;;;;5014492;28;20041;-81
2022/12/20 09:41:43;;;;;;;6.18;3.00;;;10.40;99.90;;;;;;5029461;28;20968;-80
2022/12/20 09:44:28;;;;;;;11.82;3.55;;;10.40;99.90;;;;;;5016516;28;20045;-80
2022/12/20 09:47:19;;;;;;;8.20;3.15;;;10.40;99.90;;;;;;5024258;28;20561;-80
2022/12/20 09:49:48;;;;;;;6.38;2.90;;;10.50;99.90;;;;;;5015775;28;20058;-79
2022/12/20 09:52:23;;;;;;;5.78;2.92;;;10.50;99.90;;;;;;5015218;28;20044;-79
2022/12/20 09:55:22;;;;;;;7.82;3.13;;;10.50;99.90;;;;;;5011761;28;20488;-80
2022/12/20 09:58:06;;;;;;;7.18;2.97;;;10.50;99.90;;;;;;5013343;28;20065;-80
2022/12/20 10:00:41;;;;;;;4.93;2.78;;;10.50;99.90;;;;;;5013368;28;20065;-80
2022/12/20 10:03:18;;;;;;;5.40;2.90;;;10.60;99.90;;;;;;4992598;28;20501;-80
2022/12/20 10:05:53;;;;;;;6.72;3.30;;;10.60;99.90;;;;;;5010651;28;20068;-81
2022/12/20 10:08:28;;;;;;;7.05;3.92;;;10.60;99.90;;;;;;5035868;28;20041;-80
2022/12/20 10:11:13;;;;;;;7.63;3.53;;;10.60;99.90;;;;;;5001972;28;20056;-80
2022/12/20 10:14:29;;;;;;;9.13;5.05;;;10.60;99.90;;;;;;5017708;28;20041;-79
2022/12/20 10:17:02;;;;;;;6.57;3.25;;;10.70;99.90;;;;;;4981710;28;20054;-80
2022/12/20 10:19:46;;;;;;;4.47;2.97;;;10.60;99.90;;;;;;4981753;28;20038;-79
2022/12/20 10:22:24;;;;;;;8.40;2.90;;;10.60;99.90;;;;;;4969731;28;20053;-80
2022/12/20 10:25:01;;;;;;;5.45;3.10;;;10.60;99.90;;;;;;4967749;28;20137;-80
2022/12/20 10:27:26;;;;;;;8.38;3.20;;;10.60;99.90;;;;;;4984059;28;20476;-79
2022/12/20 10:29:52;;;;;;;6.63;3.17;;;10.60;99.90;;;;;;4968868;28;20058;-80
2022/12/20 10:32:21;;;;;;;7.20;2.80;;;10.60;99.90;;;;;;4982965;28;20133;-80
2022/12/20 10:35:13;;;;;;;6.30;2.97;;;10.60;99.90;;;;;;4983688;28;20603;-79
2022/12/20 10:38:22;;;;;;;6.47;2.78;;;10.50;99.90;;;;;;4979315;28;20121;-80
2022/12/20 10:40:53;;;;;;;6.53;2.92;;;10.50;99.90;;;;;;4965420;28;20058;-80
2022/12/20 10:43:21;;;;;;;9.52;4.22;;;10.50;99.90;;;;;;4985568;28;20049;-80
2022/12/20 10:45:57;;;;;;;7.57;3.63;;;10.50;99.90;;;;;;4949522;28;20088;-79
2022/12/20 10:48:29;;;;;;;10.75;4.20;;;10.50;99.90;;;;;;5013154;28;20049;-79
2022/12/20 10:51:03;;;;;;;6.10;3.08;;;10.50;99.90;;;;;;5019010;28;20057;-79
2022/12/20 10:53:30;;;;;;;9.13;3.67;;;10.60;99.90;;;;;;5016840;28;20034;-80
2022/12/20 10:56:23;;;;;;;7.88;3.35;;;10.60;99.90;;;;;;5010398;28;20042;-80
2022/12/20 10:59:15;;;;;;;6.47;4.20;;;10.60;99.90;;;;;;5013702;28;20088;-80
2022/12/20 11:01:44;;;;;;;6.40;3.10;;;10.60;99.90;;;;;;5013749;28;20037;-80
2022/12/20 11:04:31;;;;;;;7.70;3.58;;;10.60;99.90;;;;;;5013553;28;20392;-79
2022/12/20 11:06:58;;;;;;;7.97;3.10;;;10.60;99.90;;;;;;5020432;28;21687;-80
2022/12/20 11:09:31;;;;;;;7.28;3.58;;;10.60;99.90;;;;;;4995222;28;20038;-79
2022/12/20 11:12:09;;;;;;;9.00;3.50;;;10.60;99.90;;;;;;5013845;28;20053;-80
2022/12/20 11:14:37;;;;;;;7.13;3.50;;;10.50;99.90;;;;;;5015635;28;20056;-81
2022/12/20 11:17:29;;;;;;;7.90;3.63;;;10.50;99.90;;;;;;5010933;28;20034;-81
2022/12/20 11:20:15;;;;;;;7.38;2.95;;;10.50;99.90;;;;;;5011529;28;20065;-81
2022/12/20 11:23:19;;;;;;;10.75;3.42;;;10.60;99.90;;;;;;5014617;28;20076;-80
2022/12/20 11:26:00;;;;;;;4.88;2.80;;;10.50;99.90;;;;;;5012753;28;20073;-81
2022/12/20 11:28:45;;;;;;;5.82;2.85;;;10.60;99.90;;;;;;5008337;28;20045;-80
2022/12/20 11:31:15;;;;;;;;;;;10.60;99.90;;;;;;5017674;28;20041;-81
2022/12/20 11:33:52;;;;;;;5.85;3.17;;;10.60;99.90;;;;;;5011207;28;19921;-80
2022/12/20 11:36:48;;;;;;;8.32;3.08;;;10.60;99.90;;;;;;5014527;28;20048;-80
2022/12/20 11:39:13;;;;;;;6.13;3.50;;;10.60;99.90;;;;;;5006089;28;20115;-81
2022/12/20 11:41:59;;;;;;;6.88;3.42;;;10.50;99.90;;;;;;5016425;28;20046;-85
2022/12/20 11:44:50;;;;;;;6.13;3.35;;;10.50;99.90;;;;;;5010099;28;20073;-81
2022/12/20 11:47:41;;;;;;;6.05;3.20;;;10.50;99.90;;;;;;5026574;28;20124;-81
2022/12/20 11:50:39;;;;;;;7.97;3.47;;;10.60;99.90;;;;;;5007840;28;20164;-81
2022/12/20 11:53:37;;;;;;;7.95;3.50;;;10.50;99.90;;;;;;5009745;28;20050;-81
2022/12/20 11:56:12;;;;;;;7.93;3.10;;;10.50;99.90;;;;;;5007312;28;20447;-80
2022/12/20 11:58:44;;;;;;;5.47;3.13;;;10.60;99.90;;;;;;5027849;28;20120;-80
2022/12/20 12:01:16;;;;;;;5.38;3.10;;;10.50;99.90;;;;;;5012697;28;20041;-80
2022/12/20 12:03:57;;;;;;;6.35;3.13;;;10.50;99.90;;;;;;5008318;28;20042;-80
2022/12/20 12:06:28;;;;;;;5.13;3.08;;;10.50;99.90;;;;;;5015284;28;20026;-80
2022/12/20 12:09:35;;;;;;;10.35;3.10;;;10.50;99.90;;;;;;5013092;28;20050;-81
2022/12/20 12:12:37;;;;;;;5.22;2.67;;;10.50;99.90;;;;;;5003790;28;20140;-80
2022/12/20 12:15:27;;;;;;;6.75;3.40;;;10.50;99.90;;;;;;5003556;28;20046;-80
2022/12/20 12:18:09;;;;;;;7.60;3.28;;;10.50;99.90;;;;;;5012084;28;20680;-80
2022/12/20 12:20:47;;;;;;;8.57;2.95;;;10.50;99.90;;;;;;5012201;28;20038;-81
2022/12/20 12:23:21;;;;;;;9.90;3.60;;;10.50;99.90;;;;;;5012721;28;20030;-80
2022/12/20 12:25:47;;;;;;;5.75;3.50;;;10.50;99.90;;;;;;5006479;28;20037;-80
2022/12/20 12:28:13;;;;;;;5.90;3.47;;;10.50;99.90;;;;;;5005391;28;20049;-80
2022/12/20 12:31:05;;;;;;;9.48;4.00;;;10.50;99.90;;;;;;5014371;28;20030;-80
2022/12/20 12:33:39;;;;;;;5.25;3.47;;;10.40;99.90;;;;;;5016136;28;20505;-81
2022/12/20 12:36:43;;;;;;;10.18;4.03;;;10.40;99.90;;;;;;5031301;28;20049;-81
2022/12/20 12:39:27;;;;;;;7.95;4.00;;;10.40;99.90;;;;;;5018067;28;20485;-80
2022/12/20 12:42:11;;;;;;;7.70;3.65;;;10.40;99.90;;;;;;5023968;28;20099;-80
2022/12/20 12:44:54;;;;;;;7.30;4.15;;;10.40;99.90;;;;;;5015208;28;20168;-80
2022/12/20 12:47:38;;;;;;;9.65;4.95;;;10.80;99.90;;;;;;5021155;28;20248;-80
2022/12/20 12:50:08;;;;;;;8.18;5.35;;;10.30;99.90;;;;;;5009873;28;20338;-80
2022/12/20 12:52:45;;;;;;;6.97;4.32;;;10.30;99.90;;;;;;5007664;28;20096;-80
2022/12/20 12:55:34;;;;;;;8.27;4.20;;;10.30;99.90;;;;;;5013875;28;20117;-80
2022/12/20 12:58:21;;;;;;;6.88;4.40;;;10.30;99.90;;;;;;5016261;28;20037;-82
2022/12/20 13:00:48;;;;;;;8.70;4.30;;;10.30;99.90;;;;;;5019166;28;20052;-82
2022/12/20 13:03:16;;;;;;;6.85;4.45;;;10.30;99.90;;;;;;5009601;28;20045;-82
2022/12/20 13:05:42;;;;;;;6.50;4.05;;;10.30;99.90;;;;;;5033804;28;20040;-82
2022/12/20 13:08:17;;;;;;;6.95;4.60;;;10.30;99.90;;;;;;5007948;28;20042;-82
2022/12/20 13:10:55;;;;;;;8.32;4.63;;;10.30;99.90;;;;;;5003541;28;20487;-82
2022/12/20 13:13:22;;;;;;;10.48;4.97;;;10.30;99.90;;;;;;5016286;28;20034;-81
2022/12/20 13:15:50;;;;;;;8.68;5.38;;;10.30;99.90;;;;;;5013942;28;20500;-83
2022/12/20 13:18:21;;;;;;;6.85;4.93;;;10.30;99.90;;;;;;5015098;28;20050;-83
2022/12/20 13:21:26;;;;;;;9.25;4.55;;;10.30;99.90;;;;;;5011228;28;20054;-82
2022/12/20 13:24:30;;;;;;;7.07;4.70;;;10.30;99.90;;;;;;4971484;28;20041;-81